Time;durP1;ratioP1;P1;durP2;ratioP2;P2;SDS_P1;SDS_P2;PMS_P1;PMS_P2;Temp;Humidity;BMP_temperature;BMP_pressure;BME280_temperature;BME280_humidity;BME280_pressure;Samples;Min_cycle;Max_cycle;Signal;HPM_P1;HPM_P2
2023/06/10 00:02:08;;;;;;;6.57;5.95;;;;;;;;;;5003750;28;20044;-76
2023/06/10 00:04:33;;;;;;;7.57;6.43;;;;;;;;;;4995370;28;20978;-76
2023/06/10 00:06:59;;;;;;;6.30;5.80;;;;;;;;;;4988426;28;20033;-75
2023/06/10 00:09:25;;;;;;;7.85;5.82;;;;;;;;;;5001132;28;20109;-76
2023/06/10 00:11:50;;;;;;;7.45;5.97;;;;;;;;;;5004078;28;20117;-75
2023/06/10 00:14:16;;;;;;;9.48;6.45;;;;;;;;;;4993408;28;20108;-75
2023/06/10 00:16:44;;;;;;;6.97;6.28;;;;;;;;;;5003435;28;20415;-74
2023/06/10 00:19:13;;;;;;;9.48;7.13;;;;;;;;;;5003795;28;20096;-76
2023/06/10 00:21:40;;;;;;;11.00;7.17;;;;;;;;;;5003437;28;20759;-76
2023/06/10 00:24:06;;;;;;;8.25;7.43;;;;;;;;;;5000574;28;20449;-73
2023/06/10 00:26:32;;;;;;;7.47;6.80;;;;;;;;;;4990009;28;20046;-74
2023/06/10 00:28:57;;;;;;;7.72;6.93;;;;;;;;;;5003390;28;20038;-75
2023/06/10 00:31:23;;;;;;;9.70;7.20;;;;;;;;;;5001963;28;20087;-75
2023/06/10 00:33:48;;;;;;;11.75;6.65;;;;;;;;;;5004144;28;20030;-75
2023/06/10 00:36:14;;;;;;;7.78;7.03;;;;;;;;;;5002889;28;20025;-74
2023/06/10 00:38:40;;;;;;;7.18;6.50;;;;;;;;;;5003520;28;20442;-74
2023/06/10 00:41:06;;;;;;;8.55;7.75;;;;;;;;;;5002345;28;20017;-75
2023/06/10 00:43:32;;;;;;;12.60;7.38;;;;;;;;;;5003442;28;20025;-76
2023/06/10 00:45:57;;;;;;;7.60;6.95;;;;;;;;;;4990786;28;20033;-75
2023/06/10 00:48:22;;;;;;;7.95;7.25;;;;;;;;;;5002780;28;20442;-75
2023/06/10 00:50:48;;;;;;;8.05;7.25;;;;;;;;;;5002998;28;20044;-76
2023/06/10 00:53:13;;;;;;;7.57;6.60;;;;;;;;;;5003234;28;20082;-75
2023/06/10 00:55:40;;;;;;;7.63;6.93;;;;;;;;;;4990031;28;20030;-74
2023/06/10 00:58:05;;;;;;;6.88;6.28;;;;;;;;;;4988940;28;20077;-74
2023/06/10 01:00:30;;;;;;;7.05;6.40;;;;;;;;;;5003003;28;20064;-74
2023/06/10 01:02:56;;;;;;;7.47;6.43;;;;;;;;;;5003569;28;20040;-74
2023/06/10 01:05:22;;;;;;;8.65;7.22;;;;;;;;;;5002936;28;20030;-74
2023/06/10 01:08:06;;;;;;;9.32;6.80;;;;;;;;;;4993853;28;20034;-74
2023/06/10 01:10:50;;;;;;;7.28;6.57;;;;;;;;;;5001523;28;20048;-76
2023/06/10 01:13:16;;;;;;;7.47;6.78;;;;;;;;;;5002595;28;20449;-74
2023/06/10 01:15:41;;;;;;;7.47;6.72;;;;;;;;;;5003266;28;20038;-74
2023/06/10 01:18:12;;;;;;;8.38;7.45;;;;;;;;;;5000825;28;20022;-75
2023/06/10 01:20:39;;;;;;;8.45;7.03;;;;;;;;;;4992476;28;20025;-76
2023/06/10 01:23:06;;;;;;;6.93;6.22;;;;;;;;;;5003161;28;20112;-78
2023/06/10 01:25:32;;;;;;;9.63;6.65;;;;;;;;;;5002796;28;20026;-75
2023/06/10 01:28:10;;;;;;;7.72;6.50;;;;;;;;;;5002819;28;20017;-76
2023/06/10 01:30:43;;;;;;;6.90;6.07;;;;;;;;;;4990309;28;20053;-75
2023/06/10 01:33:10;;;;;;;10.25;6.60;;;;;;;;;;5002431;28;20026;-76
2023/06/10 01:35:36;;;;;;;7.20;5.85;;;;;;;;;;4999881;28;20049;-76
2023/06/10 01:38:02;;;;;;;6.78;5.82;;;;;;;;;;4992737;28;20477;-74
2023/06/10 01:40:28;;;;;;;9.00;6.60;;;;;;;;;;5002573;28;20101;-74
2023/06/10 01:42:54;;;;;;;8.20;6.35;;;;;;;;;;4998264;28;20045;-74
2023/06/10 01:45:19;;;;;;;8.32;6.40;;;;;;;;;;4993521;28;20044;-74
2023/06/10 01:47:44;;;;;;;7.55;6.85;;;;;;;;;;5001294;28;20038;-75
2023/06/10 01:50:10;;;;;;;7.65;6.93;;;;;;;;;;5002909;28;20022;-74
2023/06/10 01:52:35;;;;;;;8.98;6.97;;;;;;;;;;4996758;28;20101;-75
2023/06/10 01:55:01;;;;;;;19.08;7.07;;;;;;;;;;4992476;28;20036;-74
2023/06/10 01:57:26;;;;;;;7.25;6.63;;;;;;;;;;5001810;28;20049;-76
2023/06/10 01:59:51;;;;;;;7.53;6.72;;;;;;;;;;4986480;28;20037;-75
2023/06/10 02:02:17;;;;;;;8.18;6.72;;;;;;;;;;5001463;28;20035;-75
2023/06/10 02:04:42;;;;;;;8.98;7.05;;;;;;;;;;5002552;28;20584;-75
2023/06/10 02:07:07;;;;;;;10.30;6.78;;;;;;;;;;5002092;28;20127;-75
2023/06/10 02:09:34;;;;;;;9.07;6.28;;;;;;;;;;4989229;28;20026;-75
2023/06/10 02:12:00;;;;;;;9.05;6.35;;;;;;;;;;4995329;28;20128;-75
2023/06/10 02:14:25;;;;;;;7.00;5.70;;;;;;;;;;4987638;28;20175;-74
2023/06/10 02:16:51;;;;;;;6.28;5.68;;;;;;;;;;4998320;28;20054;-75
2023/06/10 02:19:17;;;;;;;6.85;6.15;;;;;;;;;;4993753;28;20369;-75
2023/06/10 02:21:42;;;;;;;9.27;6.70;;;;;;;;;;4986410;28;21169;-73
2023/06/10 02:24:08;;;;;;;8.15;5.75;;;;;;;;;;5000963;28;20041;-74
2023/06/10 02:26:33;;;;;;;6.13;5.53;;;;;;;;;;5005705;28;20491;-75
2023/06/10 02:28:58;;;;;;;7.07;6.07;;;;;;;;;;5006226;28;20037;-75
2023/06/10 02:31:25;;;;;;;5.68;5.18;;;;;;;;;;5005898;28;20095;-74
2023/06/10 02:33:50;;;;;;;8.65;6.47;;;;;;;;;;4997961;28;20405;-74
2023/06/10 02:36:16;;;;;;;11.07;6.60;;;;;;;;;;4997597;28;20064;-75
2023/06/10 02:38:41;;;;;;;7.38;6.78;;;;;;;;;;5005521;28;20497;-76
2023/06/10 02:41:07;;;;;;;8.85;6.40;;;;;;;;;;5005810;28;20034;-75
2023/06/10 02:43:32;;;;;;;8.95;6.75;;;;;;;;;;4990047;28;20025;-74
2023/06/10 02:45:57;;;;;;;8.25;6.38;;;;;;;;;;5006103;28;20041;-75
2023/06/10 02:48:26;;;;;;;8.48;6.60;;;;;;;;;;5005701;28;20124;-74
2023/06/10 02:50:52;;;;;;;6.80;5.70;;;;;;;;;;5003638;28;20420;-75
2023/06/10 02:53:17;;;;;;;8.45;6.68;;;;;;;;;;5005544;28;20041;-76
2023/06/10 02:55:43;;;;;;;9.85;6.60;;;;;;;;;;5005892;28;20041;-74
2023/06/10 02:58:08;;;;;;;6.60;5.82;;;;;;;;;;5005395;28;20042;-75
2023/06/10 03:00:33;;;;;;;7.00;5.90;;;;;;;;;;5004560;28;20061;-74
2023/06/10 03:03:04;;;;;;;7.55;5.97;;;;;;;;;;5006076;28;20088;-75
2023/06/10 03:05:30;;;;;;;11.05;6.38;;;;;;;;;;5004902;28;20480;-76
2023/06/10 03:07:55;;;;;;;10.05;6.68;;;;;;;;;;5005549;28;20057;-75
2023/06/10 03:10:20;;;;;;;6.85;6.10;;;;;;;;;;5005609;28;20412;-76
2023/06/10 03:12:46;;;;;;;8.43;6.05;;;;;;;;;;5004393;28;20033;-76
2023/06/10 03:15:12;;;;;;;12.73;6.88;;;;;;;;;;5005479;28;20117;-75
2023/06/10 03:17:37;;;;;;;14.13;5.95;;;;;;;;;;5005170;28;20441;-75
2023/06/10 03:20:05;;;;;;;8.80;5.57;;;;;;;;;;5005673;28;20029;-75
2023/06/10 03:22:30;;;;;;;9.48;6.45;;;;;;;;;;4996927;28;20456;-76
2023/06/10 03:24:57;;;;;;;7.05;5.78;;;;;;;;;;5000877;28;20045;-76
2023/06/10 03:27:22;;;;;;;8.00;6.60;;;;;;;;;;5005325;28;20021;-76
2023/06/10 03:29:47;;;;;;;9.23;6.20;;;;;;;;;;5005178;28;20501;-74
2023/06/10 03:32:13;;;;;;;7.70;6.22;;;;;;;;;;5004798;28;20037;-74
2023/06/10 03:34:38;;;;;;;9.38;5.70;;;;;;;;;;5004814;28;20042;-75
2023/06/10 03:37:04;;;;;;;9.15;6.30;;;;;;;;;;5004634;28;20092;-74
2023/06/10 03:39:29;;;;;;;10.13;5.57;;;;;;;;;;5004234;28;20026;-75
2023/06/10 03:41:56;;;;;;;12.65;5.45;;;;;;;;;;5004217;28;20065;-74
2023/06/10 03:44:22;;;;;;;10.80;5.65;;;;;;;;;;5004485;28;20433;-75
2023/06/10 03:46:47;;;;;;;10.45;5.88;;;;;;;;;;5003656;28;20088;-75
2023/06/10 03:49:12;;;;;;;9.98;6.13;;;;;;;;;;5004411;28;20022;-74
2023/06/10 03:51:38;;;;;;;8.20;6.30;;;;;;;;;;5004139;28;20034;-74
2023/06/10 03:54:03;;;;;;;13.43;5.57;;;;;;;;;;4995237;28;20424;-74
2023/06/10 03:56:29;;;;;;;12.18;5.75;;;;;;;;;;4999563;28;20104;-74
2023/06/10 03:58:55;;;;;;;9.40;5.63;;;;;;;;;;5003623;28;20433;-76
2023/06/10 04:01:20;;;;;;;6.45;5.60;;;;;;;;;;5018633;28;20021;-75
2023/06/10 04:03:48;;;;;;;7.28;5.22;;;;;;;;;;5002734;28;20038;-75
2023/06/10 04:06:14;;;;;;;8.00;6.18;;;;;;;;;;5002986;28;20481;-75
2023/06/10 04:08:40;;;;;;;6.22;5.43;;;;;;;;;;5004328;28;20108;-75
2023/06/10 04:11:05;;;;;;;7.03;5.80;;;;;;;;;;5004057;28;20079;-75
2023/06/10 04:13:31;;;;;;;5.88;5.22;;;;;;;;;;5003931;28;20117;-76
2023/06/10 04:15:56;;;;;;;8.93;5.50;;;;;;;;;;5003905;28;20299;-75
2023/06/10 04:18:22;;;;;;;11.20;5.90;;;;;;;;;;5003147;28;20349;-74
2023/06/10 04:20:47;;;;;;;8.63;6.07;;;;;;;;;;5003461;28;20018;-75
2023/06/10 04:23:12;;;;;;;12.90;5.95;;;;;;;;;;4990481;28;20088;-75
2023/06/10 04:25:38;;;;;;;9.20;6.45;;;;;;;;;;5001216;28;20030;-74
2023/06/10 04:28:03;;;;;;;10.20;6.32;;;;;;;;;;5002656;28;20022;-75
2023/06/10 04:30:31;;;;;;;11.13;5.72;;;;;;;;;;5003522;28;20104;-76
2023/06/10 04:32:56;;;;;;;8.77;6.22;;;;;;;;;;5003078;28;20045;-76
2023/06/10 04:35:21;;;;;;;11.80;6.47;;;;;;;;;;5004308;28;20026;-75
2023/06/10 04:37:47;;;;;;;15.07;5.90;;;;;;;;;;4996690;28;20460;-76
2023/06/10 04:40:12;;;;;;;11.25;6.32;;;;;;;;;;4989354;28;20502;-75
2023/06/10 04:42:38;;;;;;;11.48;5.47;;;;;;;;;;4990097;28;20449;-75
2023/06/10 04:45:03;;;;;;;6.45;5.85;;;;;;;;;;5004031;28;20060;-75
2023/06/10 04:47:29;;;;;;;6.70;5.75;;;;;;;;;;4995122;28;20452;-76
2023/06/10 04:49:54;;;;;;;7.60;6.68;;;;;;;;;;5003271;28;20116;-75
2023/06/10 04:52:20;;;;;;;6.40;5.78;;;;;;;;;;5003385;28;20035;-76
2023/06/10 04:54:45;;;;;;;8.07;6.00;;;;;;;;;;5002462;28;20033;-76
2023/06/10 04:57:11;;;;;;;9.82;6.57;;;;;;;;;;4988041;28;20128;-75
2023/06/10 04:59:38;;;;;;;8.32;6.28;;;;;;;;;;4998651;28;20025;-75
2023/06/10 05:02:04;;;;;;;12.52;6.90;;;;;;;;;;4991157;28;20025;-75
2023/06/10 05:04:29;;;;;;;7.68;6.22;;;;;;;;;;4986129;28;20461;-75
2023/06/10 05:06:55;;;;;;;7.45;6.65;;;;;;;;;;4997419;28;20034;-76
2023/06/10 05:09:20;;;;;;;7.18;6.00;;;;;;;;;;5002615;28;20511;-76
2023/06/10 05:11:46;;;;;;;9.45;6.13;;;;;;;;;;5002512;28;20025;-74
2023/06/10 05:14:11;;;;;;;7.38;6.43;;;;;;;;;;5003228;28;20041;-74
2023/06/10 05:16:37;;;;;;;6.65;6.05;;;;;;;;;;5001761;28;20108;-74
2023/06/10 05:19:03;;;;;;;8.55;6.78;;;;;;;;;;5001722;28;20034;-74
2023/06/10 05:21:29;;;;;;;8.63;5.82;;;;;;;;;;5002595;28;20102;-77
2023/06/10 05:23:54;;;;;;;6.50;5.70;;;;;;;;;;5002869;28;20433;-76
2023/06/10 05:26:20;;;;;;;7.63;6.13;;;;;;;;;;4989985;28;20392;-75
2023/06/10 05:28:45;;;;;;;7.50;6.07;;;;;;;;;;5007496;28;20044;-75
2023/06/10 05:31:10;;;;;;;7.60;6.10;;;;;;;;;;4980544;28;20458;-75
2023/06/10 05:33:36;;;;;;;8.50;6.90;;;;;;;;;;4987431;28;20342;-76
2023/06/10 05:36:01;;;;;;;7.18;6.47;;;;;;;;;;4998090;28;20041;-75
2023/06/10 05:38:27;;;;;;;7.22;6.63;;;;;;;;;;4989650;28;20034;-76
2023/06/10 05:40:52;;;;;;;7.00;6.32;;;;;;;;;;4990228;28;20056;-74
2023/06/10 05:43:17;;;;;;;7.93;6.05;;;;;;;;;;4983068;28;20129;-77
2023/06/10 05:45:43;;;;;;;6.85;6.15;;;;;;;;;;4980987;28;20044;-74
2023/06/10 05:48:08;;;;;;;6.90;6.20;;;;;;;;;;4983458;28;20025;-74
2023/06/10 05:50:38;;;;;;;9.32;5.78;;;;;;;;;;4986159;28;20033;-76
2023/06/10 05:53:03;;;;;;;9.70;6.10;;;;;;;;;;4982191;28;20047;-77
2023/06/10 05:55:29;;;;;;;5.93;5.43;;;;;;;;;;4983989;28;20037;-76
2023/06/10 05:58:01;;;;;;;7.30;5.45;;;;;;;;;;4982001;28;20138;-78
2023/06/10 06:00:26;;;;;;;8.55;5.28;;;;;;;;;;4989417;28;20037;-75
2023/06/10 06:02:52;;;;;;;9.02;5.55;;;;;;;;;;4995223;28;20029;-74
2023/06/10 06:05:17;;;;;;;9.30;5.88;;;;;;;;;;4995863;28;20022;-75
2023/06/10 06:07:43;;;;;;;8.25;5.93;;;;;;;;;;5006363;28;20100;-75
2023/06/10 06:10:08;;;;;;;10.18;5.93;;;;;;;;;;5005439;28;20442;-75
2023/06/10 06:12:34;;;;;;;9.02;5.40;;;;;;;;;;4989342;28;20029;-75
2023/06/10 06:14:59;;;;;;;6.35;5.25;;;;;;;;;;4988218;28;20080;-76
2023/06/10 06:17:24;;;;;;;5.63;4.88;;;;;;;;;;4995668;28;20030;-75
2023/06/10 06:19:50;;;;;;;6.60;4.80;;;;;;;;;;4995984;28;20128;-75
2023/06/10 06:22:19;;;;;;;6.53;5.10;;;;;;;;;;5004759;28;20040;-74
2023/06/10 06:24:44;;;;;;;;;;;;;;;;;;4994373;28;20037;-75
2023/06/10 06:27:10;;;;;;;6.73;4.67;;;;;;;;;;4991034;28;19917;-74
2023/06/10 06:29:35;;;;;;;6.40;4.95;;;;;;;;;;4991709;28;20112;-74
2023/06/10 06:32:01;;;;;;;5.75;5.22;;;;;;;;;;4988957;28;20029;-74
2023/06/10 06:34:26;;;;;;;8.18;5.80;;;;;;;;;;4990337;28;20072;-75
2023/06/10 06:36:52;;;;;;;6.28;5.68;;;;;;;;;;4989834;28;20041;-74
2023/06/10 06:39:17;;;;;;;9.10;5.53;;;;;;;;;;4990878;28;20503;-74
2023/06/10 06:41:42;;;;;;;6.97;5.00;;;;;;;;;;4990527;28;20037;-76
2023/06/10 06:44:07;;;;;;;4.40;4.00;;;;;;;;;;4987433;28;20028;-76
2023/06/10 06:46:33;;;;;;;7.00;4.50;;;;;;;;;;4989779;28;20523;-75
2023/06/10 06:48:58;;;;;;;6.10;4.40;;;;;;;;;;4990659;28;20354;-72
2023/06/10 06:51:24;;;;;;;9.50;4.72;;;;;;;;;;4987809;28;20048;-72
2023/06/10 06:53:51;;;;;;;5.63;5.07;;;;;;;;;;4984256;28;20381;-72
2023/06/10 06:56:16;;;;;;;5.20;4.80;;;;;;;;;;5003818;28;20021;-74
2023/06/10 06:58:41;;;;;;;5.25;4.85;;;;;;;;;;5004340;28;20033;-72
2023/06/10 07:01:07;;;;;;;5.55;4.93;;;;;;;;;;4987104;28;20030;-74
2023/06/10 07:03:32;;;;;;;6.15;5.20;;;;;;;;;;5004019;28;20026;-74
2023/06/10 07:05:57;;;;;;;5.68;5.18;;;;;;;;;;5003662;28;20104;-76
2023/06/10 07:08:23;;;;;;;7.38;5.35;;;;;;;;;;5004002;28;20053;-74
2023/06/10 07:10:49;;;;;;;6.18;5.47;;;;;;;;;;5003198;28;20051;-73
2023/06/10 07:13:14;;;;;;;7.13;4.95;;;;;;;;;;4987199;28;20176;-74
2023/06/10 07:15:40;;;;;;;6.70;5.40;;;;;;;;;;4999472;28;20048;-74
2023/06/10 07:18:05;;;;;;;8.57;5.88;;;;;;;;;;5003956;28;20097;-74
2023/06/10 07:20:30;;;;;;;5.93;5.30;;;;;;;;;;4985390;28;20079;-73
2023/06/10 07:22:56;;;;;;;6.45;5.03;;;;;;;;;;4989553;28;20041;-76
2023/06/10 07:25:21;;;;;;;6.70;5.28;;;;;;;;;;4984952;28;20128;-74
2023/06/10 07:27:46;;;;;;;7.13;5.60;;;;;;;;;;4990387;28;20036;-73
2023/06/10 07:30:12;;;;;;;6.32;5.35;;;;;;;;;;4998165;28;20878;-74
2023/06/10 07:32:37;;;;;;;5.50;5.00;;;;;;;;;;5001914;28;20510;-74
2023/06/10 07:35:03;;;;;;;7.75;5.03;;;;;;;;;;4990918;28;20038;-73
2023/06/10 07:37:28;;;;;;;6.13;5.50;;;;;;;;;;4988005;28;20033;-74
2023/06/10 07:39:54;;;;;;;6.10;5.22;;;;;;;;;;4987317;28;20034;-74
2023/06/10 07:42:19;;;;;;;5.72;5.22;;;;;;;;;;4999578;28;20034;-73
2023/06/10 07:44:44;;;;;;;5.50;5.00;;;;;;;;;;5002722;28;23427;-74
2023/06/10 07:47:10;;;;;;;6.20;5.60;;;;;;;;;;5002935;28;20092;-75
2023/06/10 07:49:35;;;;;;;6.85;5.47;;;;;;;;;;5002585;28;20037;-74
2023/06/10 07:52:00;;;;;;;5.85;5.40;;;;;;;;;;5002811;28;20073;-76
2023/06/10 07:54:26;;;;;;;6.95;6.30;;;;;;;;;;5003903;28;20397;-76
2023/06/10 07:56:53;;;;;;;6.50;5.85;;;;;;;;;;4984265;28;20084;-73
2023/06/10 07:59:18;;;;;;;6.75;6.15;;;;;;;;;;4988616;28;20034;-76
2023/06/10 08:01:43;;;;;;;8.70;6.22;;;;;;;;;;4987472;28;20041;-74
2023/06/10 08:04:09;;;;;;;6.40;5.90;;;;;;;;;;4997219;28;20468;-73
2023/06/10 08:06:34;;;;;;;6.80;6.20;;;;;;;;;;5001738;28;20447;-73
2023/06/10 08:09:00;;;;;;;8.20;5.90;;;;;;;;;;5002549;28;20041;-77
2023/06/10 08:11:28;;;;;;;5.80;5.30;;;;;;;;;;5001980;28;20056;-73
2023/06/10 08:13:53;;;;;;;6.30;5.78;;;;;;;;;;5002497;28;20041;-73
2023/06/10 08:16:19;;;;;;;6.72;5.53;;;;;;;;;;5002928;28;20030;-73
2023/06/10 08:18:44;;;;;;;6.78;6.20;;;;;;;;;;5003065;28;20079;-73
2023/06/10 08:21:09;;;;;;;6.95;6.25;;;;;;;;;;5002771;28;20026;-74
2023/06/10 08:23:35;;;;;;;6.97;5.70;;;;;;;;;;5002521;28;20091;-75
2023/06/10 08:26:00;;;;;;;7.40;6.78;;;;;;;;;;5002279;28;20365;-72
2023/06/10 08:28:25;;;;;;;7.85;5.80;;;;;;;;;;5003415;28;20030;-76
2023/06/10 08:30:51;;;;;;;6.45;5.95;;;;;;;;;;5010446;28;20448;-74
2023/06/10 08:33:16;;;;;;;8.00;5.93;;;;;;;;;;5012216;28;20038;-74
2023/06/10 08:35:41;;;;;;;5.40;4.90;;;;;;;;;;5014389;28;20364;-75
2023/06/10 08:38:07;;;;;;;8.70;6.10;;;;;;;;;;5013967;28;20026;-74
2023/06/10 08:40:32;;;;;;;5.65;5.22;;;;;;;;;;5014002;28;20785;-73
2023/06/10 08:43:08;;;;;;;6.40;5.32;;;;;;;;;;5014011;28;20543;-73
2023/06/10 08:45:35;;;;;;;7.80;5.97;;;;;;;;;;5012783;28;20120;-74
2023/06/10 08:48:02;;;;;;;6.68;5.95;;;;;;;;;;5013523;28;20076;-74
2023/06/10 08:50:30;;;;;;;6.47;5.88;;;;;;;;;;5014098;28;20030;-75
2023/06/10 08:52:57;;;;;;;5.90;5.40;;;;;;;;;;5013574;28;20475;-73
2023/06/10 08:55:41;;;;;;;6.05;5.45;;;;;;;;;;5013510;28;20026;-74
2023/06/10 08:58:07;;;;;;;7.28;6.57;;;;;;;;;;5014244;28;20046;-73
2023/06/10 09:00:33;;;;;;;6.93;6.32;;;;;;;;;;5013544;28;20048;-74
2023/06/10 09:02:59;;;;;;;8.00;6.13;;;;;;;;;;5013707;28;20028;-74
2023/06/10 09:05:26;;;;;;;8.45;6.45;;;;;;;;;;5013345;28;20353;-74
2023/06/10 09:07:52;;;;;;;8.20;6.10;;;;;;;;;;5013312;28;20029;-75
2023/06/10 09:10:17;;;;;;;7.00;6.40;;;;;;;;;;5014014;28;20400;-73
2023/06/10 09:12:43;;;;;;;8.77;6.60;;;;;;;;;;5013819;28;20068;-75
2023/06/10 09:15:08;;;;;;;9.20;7.82;;;;;;;;;;5013626;28;20037;-75
2023/06/10 09:17:36;;;;;;;11.25;8.52;;;;;;;;;;5013837;28;20071;-75
2023/06/10 09:20:02;;;;;;;9.18;8.30;;;;;;;;;;5013650;28;20284;-74
2023/06/10 09:22:28;;;;;;;9.20;8.40;;;;;;;;;;5013373;28;20022;-74
2023/06/10 09:25:08;;;;;;;7.80;7.00;;;;;;;;;;5013375;28;20022;-74
2023/06/10 09:27:43;;;;;;;8.90;8.05;;;;;;;;;;5013264;28;20025;-73
2023/06/10 09:30:09;;;;;;;8.75;7.88;;;;;;;;;;5012163;28;20029;-73
2023/06/10 09:32:38;;;;;;;8.98;8.05;;;;;;;;;;5012829;28;20090;-74
2023/06/10 09:35:08;;;;;;;8.43;7.65;;;;;;;;;;5013694;28;20057;-75
2023/06/10 09:37:38;;;;;;;8.60;7.93;;;;;;;;;;5012962;28;20041;-74
2023/06/10 09:40:04;;;;;;;;;;;;;;;;;;5013504;28;20457;-74
2023/06/10 09:42:32;;;;;;;9.30;8.48;;;;;;;;;;5013364;28;19982;-73
2023/06/10 09:44:57;;;;;;;8.65;7.82;;;;;;;;;;5010824;28;20108;-74
2023/06/10 09:47:22;;;;;;;9.85;8.85;;;;;;;;;;5012914;28;20109;-74
2023/06/10 09:49:49;;;;;;;9.35;8.65;;;;;;;;;;5013263;28;20028;-75
2023/06/10 09:52:20;;;;;;;9.27;8.48;;;;;;;;;;5012766;28;20033;-73
2023/06/10 09:54:46;;;;;;;8.88;8.07;;;;;;;;;;5013238;28;20349;-74
2023/06/10 09:57:11;;;;;;;12.23;7.82;;;;;;;;;;5012875;28;20054;-74
2023/06/10 09:59:37;;;;;;;9.18;8.38;;;;;;;;;;5013150;28;20449;-75
2023/06/10 10:02:04;;;;;;;10.23;9.23;;;;;;;;;;5012852;28;20160;-75
2023/06/10 10:04:29;;;;;;;10.88;9.88;;;;;;;;;;5012730;28;20026;-74
2023/06/10 10:06:55;;;;;;;10.35;9.40;;;;;;;;;;5012110;28;20030;-74
2023/06/10 10:09:20;;;;;;;12.80;10.25;;;;;;;;;;5013175;28;20018;-74
2023/06/10 10:11:45;;;;;;;8.68;7.97;;;;;;;;;;5012637;28;20397;-74
2023/06/10 10:14:12;;;;;;;8.90;8.10;;;;;;;;;;5010990;28;20329;-73
2023/06/10 10:16:40;;;;;;;9.00;8.20;;;;;;;;;;4993607;28;20045;-75
2023/06/10 10:19:15;;;;;;;8.27;7.45;;;;;;;;;;5001466;28;20029;-73
2023/06/10 10:21:48;;;;;;;9.48;8.15;;;;;;;;;;5001467;28;20056;-74
2023/06/10 10:24:26;;;;;;;10.88;9.23;;;;;;;;;;5002195;28;20014;-74
2023/06/10 10:26:54;;;;;;;9.70;8.45;;;;;;;;;;5001322;28;20113;-74
2023/06/10 10:29:23;;;;;;;9.60;8.50;;;;;;;;;;5001359;28;20053;-74
2023/06/10 10:31:50;;;;;;;9.80;8.80;;;;;;;;;;5001875;28;20287;-74
2023/06/10 10:34:17;;;;;;;9.18;8.27;;;;;;;;;;5001147;28;20029;-74
2023/06/10 10:36:43;;;;;;;9.27;8.48;;;;;;;;;;5001284;28;20034;-74
2023/06/10 10:39:08;;;;;;;9.40;8.50;;;;;;;;;;5001263;28;20026;-74
2023/06/10 10:41:35;;;;;;;9.75;8.85;;;;;;;;;;5002328;28;20033;-74
2023/06/10 10:44:00;;;;;;;10.63;8.48;;;;;;;;;;5002172;28;20034;-76
2023/06/10 10:46:26;;;;;;;9.52;8.75;;;;;;;;;;5004289;28;20386;-75
2023/06/10 10:48:52;;;;;;;9.55;8.65;;;;;;;;;;5005120;28;20042;-74
2023/06/10 10:51:17;;;;;;;8.68;7.82;;;;;;;;;;5004741;28;20087;-75
2023/06/10 10:53:44;;;;;;;8.13;7.32;;;;;;;;;;5003819;28;20038;-75
2023/06/10 10:56:14;;;;;;;6.63;6.03;;;;;;;;;;5005047;28;20195;-74
2023/06/10 10:58:39;;;;;;;7.15;6.50;;;;;;;;;;5004876;28;20026;-77
2023/06/10 11:01:12;;;;;;;6.30;5.80;;;;;;;;;;5005329;28;20032;-75
2023/06/10 11:03:42;;;;;;;8.48;6.82;;;;;;;;;;5004364;28;20034;-76
2023/06/10 11:06:12;;;;;;;7.95;7.15;;;;;;;;;;5004899;28;20026;-73
2023/06/10 11:08:40;;;;;;;7.50;6.80;;;;;;;;;;5004973;28;20033;-77
2023/06/10 11:11:21;;;;;;;6.80;6.30;;;;;;;;;;5005150;28;20449;-74
2023/06/10 11:14:00;;;;;;;10.43;6.15;;;;;;;;;;5004514;28;20025;-74
2023/06/10 11:16:28;;;;;;;8.13;6.10;;;;;;;;;;5004700;28;20096;-74
2023/06/10 11:18:54;;;;;;;18.58;6.63;;;;;;;;;;5004098;28;20037;-75
2023/06/10 11:21:19;;;;;;;7.32;5.80;;;;;;;;;;5004538;28;20034;-76
2023/06/10 11:23:45;;;;;;;7.53;6.10;;;;;;;;;;5005056;28;20137;-73
2023/06/10 11:26:32;;;;;;;6.13;5.57;;;;;;;;;;5004521;28;20878;-74
2023/06/10 11:28:57;;;;;;;6.65;5.95;;;;;;;;;;5004874;28;20109;-74
2023/06/10 11:31:24;;;;;;;6.35;5.70;;;;;;;;;;5005040;28;20120;-73
2023/06/10 11:33:52;;;;;;;5.88;5.18;;;;;;;;;;5004782;28;20076;-74
2023/06/10 11:36:17;;;;;;;5.78;5.25;;;;;;;;;;5004220;28;20425;-75
2023/06/10 11:38:43;;;;;;;6.47;5.97;;;;;;;;;;5005111;28;20049;-74
2023/06/10 11:41:09;;;;;;;6.63;6.10;;;;;;;;;;5004865;28;20036;-74
2023/06/10 11:43:34;;;;;;;8.40;6.05;;;;;;;;;;5004316;28;20088;-75
2023/06/10 11:46:01;;;;;;;6.72;6.18;;;;;;;;;;5004325;28;20037;-75
2023/06/10 11:48:30;;;;;;;8.40;7.60;;;;;;;;;;5004266;28;20493;-78
2023/06/10 11:50:55;;;;;;;8.00;6.82;;;;;;;;;;5004128;28;20021;-75
2023/06/10 11:53:20;;;;;;;6.25;5.72;;;;;;;;;;5003936;28;20103;-74
2023/06/10 11:55:47;;;;;;;6.45;5.95;;;;;;;;;;5004417;28;20381;-74
2023/06/10 11:58:16;;;;;;;7.35;6.75;;;;;;;;;;5003222;28;20049;-78
2023/06/10 12:00:57;;;;;;;6.57;5.93;;;;;;;;;;5003308;28;20682;-75
2023/06/10 12:03:23;;;;;;;6.90;6.30;;;;;;;;;;5003306;28;20041;-75
2023/06/10 12:06:04;;;;;;;6.20;5.70;;;;;;;;;;5004029;28;20034;-74
2023/06/10 12:08:29;;;;;;;6.85;6.25;;;;;;;;;;5003769;28;21037;-76
2023/06/10 12:10:55;;;;;;;7.45;6.80;;;;;;;;;;5036267;28;20041;-74
2023/06/10 12:13:21;;;;;;;6.60;5.95;;;;;;;;;;5003560;28;20033;-74
2023/06/10 12:15:47;;;;;;;8.57;5.38;;;;;;;;;;5003719;28;20030;-75
2023/06/10 12:18:24;;;;;;;7.20;5.80;;;;;;;;;;5003625;28;20444;-75
2023/06/10 12:20:51;;;;;;;7.18;6.47;;;;;;;;;;5004252;28;20030;-74
2023/06/10 12:23:17;;;;;;;6.60;5.97;;;;;;;;;;5003459;28;20516;-77
2023/06/10 12:25:55;;;;;;;8.57;6.28;;;;;;;;;;5003708;28;20109;-73
2023/06/10 12:28:24;;;;;;;8.00;7.30;;;;;;;;;;5003906;28;20041;-76
2023/06/10 12:30:49;;;;;;;;;;;;;;;;;;5004120;28;20017;-75
2023/06/10 12:33:18;;;;;;;7.07;6.18;;;;;;;;;;5002883;28;20245;-74
2023/06/10 12:35:50;;;;;;;6.22;5.70;;;;;;;;;;5003745;28;20148;-75
2023/06/10 12:38:21;;;;;;;11.05;6.53;;;;;;;;;;5003734;28;20113;-74
2023/06/10 12:40:47;;;;;;;6.53;5.95;;;;;;;;;;5003306;28;20033;-74
2023/06/10 12:43:12;;;;;;;5.35;4.85;;;;;;;;;;5003644;28;20068;-75
2023/06/10 12:45:44;;;;;;;5.72;5.10;;;;;;;;;;5003224;28;20136;-75
2023/06/10 12:48:11;;;;;;;4.97;4.20;;;;;;;;;;5003194;28;20092;-74
2023/06/10 12:50:41;;;;;;;4.95;4.20;;;;;;;;;;5002891;28;20025;-75
2023/06/10 12:53:06;;;;;;;5.32;4.50;;;;;;;;;;5003064;28;20030;-74
2023/06/10 12:55:32;;;;;;;5.93;4.85;;;;;;;;;;5003319;28;20457;-75
2023/06/10 12:57:57;;;;;;;5.82;5.22;;;;;;;;;;5003573;28;20333;-76
2023/06/10 13:00:25;;;;;;;5.03;4.63;;;;;;;;;;5003156;28;20410;-75
2023/06/10 13:02:52;;;;;;;5.90;5.22;;;;;;;;;;5003948;28;20116;-77
2023/06/10 13:05:17;;;;;;;5.18;4.70;;;;;;;;;;5002920;28;20455;-77
2023/06/10 13:07:43;;;;;;;5.85;5.35;;;;;;;;;;5002305;28;20034;-74
2023/06/10 13:10:10;;;;;;;5.80;5.20;;;;;;;;;;5002782;28;20097;-76
2023/06/10 13:12:36;;;;;;;5.50;5.00;;;;;;;;;;5002853;28;20418;-74
2023/06/10 13:15:01;;;;;;;5.07;4.60;;;;;;;;;;5002810;28;20109;-75
2023/06/10 13:17:27;;;;;;;5.13;4.63;;;;;;;;;;5002959;28;20109;-75
2023/06/10 13:19:52;;;;;;;5.35;4.78;;;;;;;;;;5003025;28;20025;-74
2023/06/10 13:22:20;;;;;;;4.57;4.10;;;;;;;;;;5002933;28;20034;-75
2023/06/10 13:24:45;;;;;;;4.53;3.80;;;;;;;;;;5003043;28;20069;-74
2023/06/10 13:27:10;;;;;;;4.07;3.78;;;;;;;;;;5002833;28;20483;-75
2023/06/10 13:29:36;;;;;;;4.18;3.88;;;;;;;;;;5002516;28;20477;-77
2023/06/10 13:32:01;;;;;;;4.47;4.07;;;;;;;;;;5002461;28;20053;-75
2023/06/10 13:34:28;;;;;;;4.28;3.88;;;;;;;;;;5003347;28;20080;-74
2023/06/10 13:36:53;;;;;;;5.07;4.13;;;;;;;;;;5002489;28;20464;-75
2023/06/10 13:39:18;;;;;;;4.03;3.72;;;;;;;;;;5003139;28;20022;-77
2023/06/10 13:41:44;;;;;;;5.53;3.60;;;;;;;;;;5002839;28;20076;-74
2023/06/10 13:44:09;;;;;;;3.50;3.30;;;;;;;;;;5002739;28;20038;-75
2023/06/10 13:46:35;;;;;;;4.25;3.47;;;;;;;;;;5003011;28;20034;-74
2023/06/10 13:49:00;;;;;;;4.95;4.10;;;;;;;;;;5001703;28;20022;-76
2023/06/10 13:51:25;;;;;;;3.90;3.60;;;;;;;;;;5002862;28;20022;-75
2023/06/10 13:53:51;;;;;;;3.78;3.33;;;;;;;;;;5002772;28;20030;-75
2023/06/10 13:56:17;;;;;;;4.05;3.72;;;;;;;;;;5001950;28;20033;-74
2023/06/10 13:58:43;;;;;;;4.75;3.70;;;;;;;;;;5002471;28;20037;-74
2023/06/10 14:01:08;;;;;;;4.18;3.75;;;;;;;;;;5002332;28;20018;-75
2023/06/10 14:03:33;;;;;;;4.03;3.63;;;;;;;;;;5001930;28;20022;-74
2023/06/10 14:05:59;;;;;;;5.10;3.95;;;;;;;;;;5002729;28;20041;-75
2023/06/10 14:08:24;;;;;;;10.48;4.35;;;;;;;;;;5001577;28;20030;-75
2023/06/10 14:10:51;;;;;;;6.70;4.57;;;;;;;;;;5002088;28;20017;-75
2023/06/10 14:13:17;;;;;;;4.90;4.47;;;;;;;;;;5002059;28;20504;-76
2023/06/10 14:15:42;;;;;;;6.10;4.85;;;;;;;;;;5001822;28;20152;-74
2023/06/10 14:18:07;;;;;;;5.95;4.05;;;;;;;;;;5001752;28;20026;-75
2023/06/10 14:20:33;;;;;;;8.57;4.10;;;;;;;;;;5003839;28;20072;-77
2023/06/10 14:22:58;;;;;;;4.55;4.07;;;;;;;;;;5006219;28;20080;-75
2023/06/10 14:25:24;;;;;;;4.45;4.05;;;;;;;;;;5005872;28;20037;-76
2023/06/10 14:27:50;;;;;;;4.95;3.90;;;;;;;;;;5006169;28;20030;-73
2023/06/10 14:30:15;;;;;;;3.90;3.60;;;;;;;;;;4997792;28;20062;-76
2023/06/10 14:32:41;;;;;;;3.83;3.42;;;;;;;;;;4991918;28;20042;-74
2023/06/10 14:35:06;;;;;;;4.25;3.95;;;;;;;;;;5004730;28;20033;-74
2023/06/10 14:37:31;;;;;;;3.95;3.60;;;;;;;;;;4994884;28;20075;-74
2023/06/10 14:39:57;;;;;;;7.13;4.03;;;;;;;;;;4991125;28;20022;-74